createdAt,value
2023-04-14T00:01:37.794Z,5.00
2023-04-14T00:04:05.910Z,5.00
2023-04-14T00:06:34.043Z,4.90
2023-04-14T00:09:02.184Z,5.00
2023-04-14T00:11:30.512Z,5.40
2023-04-14T00:14:01.140Z,5.30
2023-04-14T00:16:31.713Z,5.00
2023-04-14T00:19:00.066Z,5.30
2023-04-14T00:21:28.156Z,5.00
2023-04-14T00:23:56.698Z,5.00
2023-04-14T00:26:24.754Z,5.00
2023-04-14T00:28:52.730Z,5.00
2023-04-14T00:31:20.874Z,5.10
2023-04-14T00:33:50.190Z,6.10
2023-04-14T00:36:18.167Z,5.00
2023-04-14T00:38:46.359Z,5.00
2023-04-14T00:41:14.373Z,5.00
2023-04-14T00:43:42.375Z,5.00
2023-04-14T00:46:10.634Z,5.00
2023-04-14T00:48:39.156Z,5.00
2023-04-14T00:51:10.108Z,5.00
2023-04-14T00:53:38.392Z,5.00
2023-04-14T00:56:06.892Z,5.00
2023-04-14T00:58:35.457Z,5.00
2023-04-14T01:01:03.896Z,5.20
2023-04-14T01:03:32.124Z,5.00
2023-04-14T01:06:00.261Z,5.00
2023-04-14T01:08:29.721Z,5.00
2023-04-14T01:11:13.217Z,5.00
2023-04-14T01:13:46.847Z,5.00
2023-04-14T01:16:19.088Z,5.40
2023-04-14T01:18:54.588Z,5.00
2023-04-14T01:21:26.507Z,5.00
2023-04-14T01:24:20.685Z,5.00
2023-04-14T01:26:51.794Z,5.00
2023-04-14T01:29:42.516Z,5.00
2023-04-14T01:32:15.803Z,5.00
2023-04-14T01:34:50.043Z,5.00
2023-04-14T01:37:22.456Z,5.00
2023-04-14T01:39:54.667Z,5.00
2023-04-14T01:42:27.497Z,5.00
2023-04-14T01:44:59.780Z,5.10
2023-04-14T01:47:30.988Z,5.10
2023-04-14T01:50:02.076Z,5.10
2023-04-14T01:52:32.480Z,5.20
2023-04-14T01:55:05.669Z,5.10
2023-04-14T01:57:36.848Z,5.00
2023-04-14T02:00:06.637Z,6.00
2023-04-14T02:02:37.869Z,5.10
2023-04-14T02:05:08.200Z,5.00
2023-04-14T02:07:37.110Z,5.00
2023-04-14T02:10:07.374Z,5.00
2023-04-14T02:12:36.883Z,5.00
2023-04-14T02:15:06.396Z,5.00
2023-04-14T02:17:36.715Z,5.00
2023-04-14T02:20:06.478Z,5.00
2023-04-14T02:22:34.547Z,5.00
2023-04-14T02:25:02.785Z,5.00
2023-04-14T02:27:34.587Z,5.00
2023-04-14T02:30:09.247Z,5.20
2023-04-14T02:32:41.009Z,5.00
2023-04-14T02:35:13.588Z,5.40
2023-04-14T02:37:44.897Z,5.00
2023-04-14T02:40:16.482Z,6.10
2023-04-14T02:42:48.072Z,5.00
2023-04-14T02:45:22.333Z,6.10
2023-04-14T02:47:55.771Z,5.00
2023-04-14T02:50:25.145Z,5.00
2023-04-14T02:52:55.417Z,5.00
2023-04-14T02:55:24.956Z,6.00
2023-04-14T02:57:54.238Z,5.00
2023-04-14T03:00:23.019Z,5.30
2023-04-14T03:02:54.991Z,5.00
2023-04-14T03:05:23.268Z,6.00
2023-04-14T03:07:52.835Z,5.00
2023-04-14T03:10:22.578Z,5.70
2023-04-14T03:12:52.349Z,5.00
2023-04-14T03:15:21.783Z,6.10
2023-04-14T03:17:55.917Z,5.00
2023-04-14T03:20:24.450Z,5.00
2023-04-14T03:22:57.762Z,5.00
2023-04-14T03:25:28.374Z,5.00
2023-04-14T03:27:59.550Z,5.00
2023-04-14T03:30:30.469Z,5.00
2023-04-14T03:33:06.209Z,5.00
2023-04-14T03:35:35.379Z,4.90
2023-04-14T03:38:08.481Z,6.10
2023-04-14T03:40:41.329Z,4.90
2023-04-14T03:43:12.680Z,5.30
2023-04-14T03:45:41.450Z,5.30
2023-04-14T03:48:14.170Z,5.90
2023-04-14T03:50:43.322Z,4.80
2023-04-14T03:53:14.282Z,5.00
2023-04-14T03:55:46.266Z,4.90
2023-04-14T03:58:16.708Z,4.80
2023-04-14T04:00:45.720Z,4.80
2023-04-14T04:03:15.985Z,5.70
2023-04-14T04:05:44.991Z,6.30
2023-04-14T04:08:14.005Z,4.80
2023-04-14T04:10:43.912Z,6.00
2023-04-14T04:13:33.888Z,4.90
2023-04-14T04:16:22.534Z,4.90
2023-04-14T04:18:53.063Z,4.90
2023-04-14T04:21:22.465Z,4.80
2023-04-14T04:23:54.287Z,5.50
2023-04-14T04:26:23.808Z,5.10
2023-04-14T04:28:52.563Z,4.80
2023-04-14T04:31:21.310Z,6.10
2023-04-14T04:33:51.943Z,5.60
2023-04-14T04:36:20.755Z,6.10
2023-04-14T04:38:49.920Z,5.30
2023-04-14T04:41:24.786Z,4.80
2023-04-14T04:43:52.917Z,5.50
2023-04-14T04:46:52.841Z,6.50
2023-04-14T04:49:22.596Z,4.80
2023-04-14T04:51:50.682Z,6.20
2023-04-14T04:54:18.921Z,6.50
2023-04-14T04:56:47.246Z,4.80
2023-04-14T04:59:15.528Z,6.20
2023-04-14T05:01:43.824Z,4.90
2023-04-14T05:04:12.025Z,4.90
2023-04-14T05:06:41.637Z,4.90
2023-04-14T05:09:09.957Z,4.90
2023-04-14T05:11:38.099Z,5.50
2023-04-14T05:14:06.434Z,5.00
2023-04-14T05:16:34.479Z,5.00
2023-04-14T05:19:03.121Z,6.30
2023-04-14T05:21:31.543Z,5.00
2023-04-14T05:24:01.507Z,5.10
2023-04-14T05:29:01.017Z,5.10
2023-04-14T05:31:29.372Z,5.70
2023-04-14T05:33:57.639Z,5.20
2023-04-14T05:36:25.647Z,5.20
2023-04-14T05:38:53.763Z,7.00
2023-04-14T05:41:23.668Z,5.10
2023-04-14T05:43:51.879Z,5.70
2023-04-14T05:46:19.998Z,5.20
2023-04-14T05:48:48.037Z,5.70
2023-04-14T05:51:16.655Z,5.40
2023-04-14T05:53:44.548Z,6.30
2023-04-14T05:56:12.728Z,5.20
2023-04-14T05:58:42.281Z,7.00
2023-04-14T06:01:10.838Z,5.30
2023-04-14T06:03:40.557Z,6.90
2023-04-14T06:06:09.167Z,7.50
2023-04-14T06:08:37.176Z,5.30
2023-04-14T06:11:05.432Z,6.20
2023-04-14T06:13:36.059Z,5.40
2023-04-14T06:16:06.365Z,7.80
2023-04-14T06:18:34.472Z,5.40
2023-04-14T06:21:03.019Z,7.80
2023-04-14T06:23:31.673Z,6.60
2023-04-14T06:25:59.992Z,5.90
2023-04-14T06:28:27.891Z,5.60
2023-04-14T06:30:56.130Z,6.40
2023-04-14T06:33:25.406Z,5.60
2023-04-14T06:35:53.519Z,5.60
2023-04-14T06:38:21.564Z,6.30
2023-04-14T06:40:51.862Z,6.40
2023-04-14T06:43:21.324Z,5.60
2023-04-14T06:45:50.868Z,6.00
2023-04-14T06:48:19.097Z,5.60
2023-04-14T06:50:55.192Z,5.60
2023-04-14T06:53:23.265Z,6.80
2023-04-14T06:55:59.128Z,5.90
2023-04-14T06:58:28.017Z,5.60
2023-04-14T07:00:57.203Z,6.60
2023-04-14T07:03:25.779Z,5.50
2023-04-14T07:05:55.411Z,6.40
2023-04-14T07:08:23.417Z,6.20
2023-04-14T07:10:51.410Z,5.70
2023-04-14T07:13:19.315Z,6.00
2023-04-14T07:15:48.479Z,6.40
2023-04-14T07:18:16.538Z,6.20
2023-04-14T07:20:44.497Z,5.90
2023-04-14T07:23:13.785Z,5.90
2023-04-14T07:25:41.716Z,5.90
2023-04-14T07:28:09.669Z,6.00
2023-04-14T07:30:38.151Z,6.40
2023-04-14T07:33:06.568Z,6.20
2023-04-14T07:35:34.709Z,6.10
2023-04-14T07:38:02.737Z,6.00
2023-04-14T07:40:32.317Z,6.00
2023-04-14T07:43:00.407Z,6.00
2023-04-14T07:45:28.651Z,6.10
2023-04-14T07:47:57.780Z,6.70
2023-04-14T07:50:26.423Z,6.10
2023-04-14T07:52:54.484Z,6.10
2023-04-14T07:55:22.470Z,6.40
2023-04-14T07:57:51.819Z,6.40
2023-04-14T08:00:19.938Z,6.20
2023-04-14T08:02:48.265Z,6.20
2023-04-14T08:05:16.445Z,6.40
2023-04-14T08:07:45.504Z,7.30
2023-04-14T08:10:13.474Z,6.90
2023-04-14T08:12:45.680Z,6.40
2023-04-14T08:15:16.437Z,7.30
2023-04-14T08:17:46.076Z,6.50
2023-04-14T08:20:14.380Z,7.10
2023-04-14T08:22:43.231Z,6.80
2023-04-14T08:25:12.463Z,6.80
2023-04-14T08:27:40.463Z,6.70
2023-04-14T08:30:10.971Z,7.20
2023-04-14T08:32:43.180Z,7.90
2023-04-14T08:35:39.239Z,7.90
2023-04-14T08:43:41.100Z,7.30
2023-04-14T08:46:11.514Z,7.80
2023-04-14T08:48:41.816Z,7.80
2023-04-14T08:51:15.815Z,7.60
2023-04-14T08:53:45.868Z,7.50
2023-04-14T08:56:17.161Z,7.70
2023-04-14T08:58:47.344Z,8.80
2023-04-14T09:01:15.922Z,7.90
2023-04-14T09:03:46.121Z,7.50
2023-04-14T09:06:15.072Z,7.30
2023-04-14T09:08:43.211Z,7.30
2023-04-14T09:11:11.403Z,7.30
2023-04-14T09:13:40.145Z,7.50
2023-04-14T09:16:08.929Z,7.50
2023-04-14T09:18:36.943Z,7.60
2023-04-14T09:21:29.771Z,7.60
2023-04-14T09:23:58.482Z,7.60
2023-04-14T09:26:28.208Z,7.50
2023-04-14T09:28:56.164Z,7.50
2023-04-14T09:31:24.953Z,7.20
2023-04-14T09:33:53.535Z,7.60
2023-04-14T09:36:25.080Z,7.10
2023-04-14T09:38:53.860Z,7.00
2023-04-14T09:41:26.488Z,7.10
2023-04-14T09:43:54.632Z,8.80
2023-04-14T09:46:22.809Z,7.30
2023-04-14T09:48:52.590Z,7.60
2023-04-14T09:51:24.729Z,7.20
2023-04-14T09:53:54.819Z,7.30
2023-04-14T09:56:28.123Z,7.30
2023-04-14T09:58:59.810Z,7.50
2023-04-14T10:01:32.014Z,7.50
2023-04-14T10:04:01.365Z,7.70
2023-04-14T10:06:31.611Z,8.00
2023-04-14T10:09:00.504Z,9.00
2023-04-14T10:11:30.561Z,8.20
2023-04-14T10:14:01.733Z,8.20
2023-04-14T10:16:29.950Z,8.20
2023-04-14T10:18:58.815Z,8.50
2023-04-14T10:21:27.895Z,8.30
2023-04-14T10:23:58.605Z,8.30
2023-04-14T10:26:27.624Z,8.40
2023-04-14T10:28:57.217Z,8.50
2023-04-14T10:31:31.923Z,8.40
2023-04-14T10:34:00.146Z,8.30
2023-04-14T10:36:30.766Z,8.20
2023-04-14T10:39:02.316Z,8.20
2023-04-14T10:41:46.370Z,8.10
2023-04-14T10:44:25.394Z,8.00
2023-04-14T10:46:54.266Z,7.80
2023-04-14T10:49:31.159Z,8.10
2023-04-14T10:52:01.091Z,7.70
2023-04-14T10:54:48.747Z,7.80
2023-04-14T10:57:17.720Z,7.90
2023-04-14T10:59:47.751Z,8.00
2023-04-14T11:02:26.387Z,8.70
2023-04-14T11:05:03.866Z,7.90
2023-04-14T11:07:32.954Z,7.90
2023-04-14T11:10:26.499Z,7.90
2023-04-14T11:12:57.597Z,7.80
2023-04-14T11:15:25.923Z,7.80
2023-04-14T11:17:55.074Z,8.00
2023-04-14T11:20:24.095Z,8.00
2023-04-14T11:22:54.366Z,8.00
2023-04-14T11:25:25.235Z,8.00
2023-04-14T11:27:53.769Z,8.10
2023-04-14T11:30:22.871Z,8.20
2023-04-14T11:32:52.205Z,8.20
2023-04-14T11:35:21.229Z,8.30
2023-04-14T11:37:49.249Z,8.30
2023-04-14T11:40:17.373Z,8.40
2023-04-14T11:42:48.078Z,8.60
2023-04-14T11:45:16.709Z,9.10
2023-04-14T11:48:01.214Z,8.90
2023-04-14T11:50:32.575Z,9.20
2023-04-14T11:53:01.115Z,9.20
2023-04-14T11:55:29.780Z,9.20
2023-04-14T11:57:59.402Z,9.20
2023-04-14T12:00:28.556Z,10.10
2023-04-14T12:02:57.541Z,9.20
2023-04-14T12:05:30.395Z,9.00
2023-04-14T12:08:00.360Z,9.30
2023-04-14T12:10:28.714Z,9.40
2023-04-14T12:13:05.946Z,9.50
2023-04-14T12:15:36.970Z,9.50
2023-04-14T12:18:08.155Z,9.60
2023-04-14T12:20:43.380Z,9.70
2023-04-14T12:23:11.572Z,9.60
2023-04-14T12:25:40.501Z,11.10
2023-04-14T12:28:09.978Z,9.40
2023-04-14T12:30:38.596Z,9.30
2023-04-14T12:33:12.066Z,9.40
2023-04-14T12:35:41.028Z,9.40
2023-04-14T12:38:14.724Z,9.50
2023-04-14T12:40:43.891Z,9.50
2023-04-14T12:43:13.581Z,9.60
2023-04-14T12:45:42.297Z,9.70
2023-04-14T12:48:10.611Z,9.80
2023-04-14T12:50:38.646Z,9.90
2023-04-14T12:53:25.046Z,10.00
2023-04-14T12:56:07.019Z,10.10
2023-04-14T12:58:37.798Z,11.40
2023-04-14T13:01:07.860Z,10.20
2023-04-14T13:03:44.882Z,10.40
2023-04-14T13:06:16.250Z,10.30
2023-04-14T13:08:45.608Z,10.30
2023-04-14T13:11:14.125Z,10.30
2023-04-14T13:13:45.617Z,10.50
2023-04-14T13:16:16.894Z,10.80
2023-04-14T13:18:47.633Z,11.00
2023-04-14T13:21:16.049Z,11.30
2023-04-14T13:23:44.028Z,10.90
2023-04-14T13:26:12.032Z,10.80
2023-04-14T13:28:40.233Z,11.00
2023-04-14T13:31:11.637Z,10.70
2023-04-14T13:33:39.637Z,10.50
2023-04-14T13:36:09.213Z,10.50
2023-04-14T13:38:37.293Z,10.30
2023-04-14T13:41:05.464Z,10.40
2023-04-14T13:43:34.892Z,10.40
2023-04-14T13:46:03.167Z,10.30
2023-04-14T13:48:33.791Z,11.00
2023-04-14T13:51:01.969Z,10.40
2023-04-14T13:53:30.074Z,10.50
2023-04-14T13:55:58.107Z,10.70
2023-04-14T13:58:26.392Z,10.80
2023-04-14T14:00:55.378Z,10.60
2023-04-14T14:03:23.713Z,10.50
2023-04-14T14:05:53.753Z,11.00
2023-04-14T14:08:21.679Z,10.10
2023-04-14T14:10:49.792Z,10.70
2023-04-14T14:13:18.748Z,10.20
2023-04-14T14:15:47.838Z,11.10
2023-04-14T14:18:16.586Z,10.30
2023-04-14T14:20:45.146Z,10.40
2023-04-14T14:23:15.722Z,10.60
2023-04-14T14:25:44.112Z,12.10
2023-04-14T14:28:12.745Z,12.40
2023-04-14T14:30:40.839Z,12.90
2023-04-14T14:33:08.860Z,12.00
2023-04-14T14:35:36.873Z,10.90
2023-04-14T14:38:04.963Z,11.00
2023-04-14T14:40:34.468Z,12.50
2023-04-14T14:43:02.540Z,12.60
2023-04-14T14:45:33.362Z,11.20
2023-04-14T14:48:04.609Z,11.20
2023-04-14T14:50:32.650Z,11.30
2023-04-14T14:53:00.688Z,11.40
2023-04-14T14:55:28.611Z,11.60
2023-04-14T14:57:57.994Z,11.70
2023-04-14T15:00:26.370Z,11.50
2023-04-14T15:02:54.679Z,11.20
2023-04-14T15:05:22.857Z,11.80
2023-04-14T15:07:51.029Z,11.10
2023-04-14T15:10:19.150Z,12.20
2023-04-14T15:12:47.096Z,10.80
2023-04-14T15:15:19.035Z,10.40
2023-04-14T15:17:47.176Z,10.00
2023-04-14T15:20:15.483Z,9.40
2023-04-14T15:22:43.450Z,10.00
2023-04-14T15:25:11.771Z,10.00
2023-04-14T15:27:39.677Z,8.30
2023-04-14T15:30:09.083Z,8.10
2023-04-14T15:32:38.564Z,8.00
2023-04-14T15:35:07.314Z,8.10
2023-04-14T15:37:35.279Z,8.10
2023-04-14T15:40:04.131Z,8.20
2023-04-14T15:42:32.070Z,8.30
2023-04-14T15:45:00.032Z,8.40
2023-04-14T15:47:28.079Z,8.50
2023-04-14T15:50:09.650Z,8.70
2023-04-14T15:52:39.099Z,8.90
2023-04-14T15:55:08.547Z,9.10
2023-04-14T15:57:36.735Z,9.30
2023-04-14T16:00:07.651Z,9.40
2023-04-14T16:02:36.287Z,9.50
2023-04-14T16:05:06.436Z,9.60
2023-04-14T16:07:34.631Z,9.60
2023-04-14T16:10:02.749Z,9.60
2023-04-14T16:12:30.749Z,9.40
2023-04-14T16:14:58.696Z,9.30
2023-04-14T16:17:26.740Z,9.20
2023-04-14T16:19:54.703Z,9.10
2023-04-14T16:22:24.086Z,9.00
2023-04-14T16:24:52.140Z,9.00
2023-04-14T16:27:20.127Z,8.80
2023-04-14T16:29:48.176Z,8.80
2023-04-14T16:32:17.535Z,8.70
2023-04-14T16:34:45.461Z,8.60
2023-04-14T16:37:13.678Z,8.60
2023-04-14T16:39:43.167Z,8.60
2023-04-14T16:42:11.388Z,8.50
2023-04-14T16:44:39.441Z,9.30
2023-04-14T16:47:07.428Z,8.30
2023-04-14T16:49:35.426Z,8.30
2023-04-14T16:52:03.407Z,9.30
2023-04-14T16:54:31.825Z,8.10
2023-04-14T16:57:01.352Z,8.80
2023-04-14T16:59:29.964Z,8.10
2023-04-14T17:01:58.312Z,7.90
2023-04-14T17:04:26.486Z,7.80
2023-04-14T17:06:54.714Z,7.80
2023-04-14T17:09:23.432Z,7.70
2023-04-14T17:11:52.045Z,8.20
2023-04-14T17:14:23.222Z,7.70
2023-04-14T17:16:51.637Z,7.50
2023-04-14T17:19:19.667Z,7.60
2023-04-14T17:21:49.593Z,7.50
2023-04-14T17:24:17.565Z,7.50
2023-04-14T17:26:45.831Z,7.50
2023-04-14T17:29:14.410Z,7.40
2023-04-14T17:31:44.572Z,7.40
2023-04-14T17:34:13.183Z,7.40
2023-04-14T17:36:41.176Z,7.30
2023-04-14T17:39:10.353Z,7.30
2023-04-14T17:41:38.594Z,7.20
2023-04-14T17:44:06.595Z,7.20
2023-04-14T17:46:34.689Z,7.30
2023-04-14T17:49:04.200Z,7.10
2023-04-14T17:51:32.876Z,7.10
2023-04-14T17:54:01.364Z,7.10
2023-04-14T17:56:30.714Z,7.00
2023-04-14T17:58:58.933Z,7.00
2023-04-14T18:01:27.180Z,6.90
2023-04-14T18:03:55.301Z,6.80
2023-04-14T18:06:24.765Z,6.80
2023-04-14T18:08:53.024Z,6.70
2023-04-14T18:11:20.954Z,6.70
2023-04-14T18:13:48.887Z,6.60
2023-04-14T18:16:18.449Z,7.70
2023-04-14T18:18:46.585Z,6.50
2023-04-14T18:21:14.550Z,8.30
2023-04-14T18:23:44.191Z,6.50
2023-04-14T18:28:43.275Z,6.20
2023-04-14T18:31:13.777Z,6.20
2023-04-14T18:33:41.947Z,6.10
2023-04-14T18:36:10.058Z,6.10
2023-04-14T18:38:38.054Z,6.10
2023-04-14T18:41:07.420Z,6.10
2023-04-14T18:43:35.431Z,6.00
2023-04-14T18:46:03.869Z,7.20
2023-04-14T18:48:32.072Z,6.00
2023-04-14T18:51:02.360Z,6.00
2023-04-14T18:53:30.561Z,6.00
2023-04-14T18:55:58.722Z,6.00
2023-04-14T18:58:29.394Z,6.00
2023-04-14T19:00:57.934Z,5.90
2023-04-14T19:03:27.118Z,5.90
2023-04-14T19:05:55.701Z,5.80
2023-04-14T19:08:23.810Z,5.80
2023-04-14T19:10:52.489Z,5.80
2023-04-14T19:13:20.876Z,5.80
2023-04-14T19:15:51.874Z,5.80
2023-04-14T19:18:20.338Z,7.50
2023-04-14T19:20:49.586Z,5.80
2023-04-14T19:23:17.920Z,5.90
2023-04-14T19:25:45.849Z,5.90
2023-04-14T19:28:16.786Z,7.20
2023-04-14T19:30:45.778Z,6.20
2023-04-14T19:33:15.624Z,6.10
2023-04-14T19:35:45.184Z,5.90
2023-04-14T19:38:13.361Z,5.90
2023-04-14T19:40:48.060Z,5.90
2023-04-14T19:43:16.363Z,5.90
2023-04-14T19:45:52.122Z,6.10
2023-04-14T19:48:23.763Z,6.00
2023-04-14T19:50:54.267Z,5.90
2023-04-14T19:53:23.336Z,5.90
2023-04-14T19:55:51.983Z,5.90
2023-04-14T19:58:21.589Z,5.90
2023-04-14T20:00:51.497Z,5.90
2023-04-14T20:03:21.295Z,5.90
2023-04-14T20:05:52.965Z,5.50
2023-04-14T20:08:21.677Z,5.90
2023-04-14T20:10:51.787Z,5.90
2023-04-14T20:13:21.297Z,5.90
2023-04-14T20:15:49.592Z,5.90
2023-04-14T20:18:18.889Z,6.00
2023-04-14T20:20:48.785Z,6.00
2023-04-14T20:23:17.065Z,5.90
2023-04-14T20:25:45.696Z,5.90
2023-04-14T20:28:16.431Z,5.90
2023-04-14T20:30:44.999Z,5.90
2023-04-14T20:33:13.131Z,5.90
2023-04-14T20:35:43.339Z,5.90
2023-04-14T20:38:15.331Z,5.90
2023-04-14T20:40:43.602Z,6.50
2023-04-14T20:43:11.680Z,5.90
2023-04-14T20:45:40.052Z,7.80
2023-04-14T20:48:09.155Z,5.80
2023-04-14T20:50:37.310Z,7.10
2023-04-14T20:53:05.375Z,7.30
2023-04-14T20:55:35.940Z,8.00
2023-04-14T20:58:04.018Z,8.10
2023-04-14T21:00:35.274Z,8.00
2023-04-14T21:03:04.340Z,5.80
2023-04-14T21:05:32.955Z,7.40
2023-04-14T21:08:01.054Z,5.80
2023-04-14T21:10:29.332Z,6.90
2023-04-14T21:15:03.853Z,5.80
2023-04-14T21:15:55.620Z,5.80
2023-04-14T21:18:25.235Z,5.80
2023-04-14T21:20:53.152Z,5.90
2023-04-14T21:23:21.481Z,5.80
2023-04-14T21:25:49.653Z,5.70
2023-04-14T21:28:19.273Z,5.70
2023-04-14T21:30:47.584Z,5.70
2023-04-14T21:33:16.939Z,5.70
2023-04-14T21:35:46.260Z,7.30
2023-04-14T21:38:15.410Z,5.80
2023-04-14T21:40:45.375Z,5.70
2023-04-14T21:43:14.627Z,5.70
2023-04-14T21:45:45.630Z,7.40
2023-04-14T21:48:14.762Z,5.60
2023-04-14T21:50:43.529Z,7.20
2023-04-14T21:53:12.201Z,7.20
2023-04-14T21:55:41.333Z,7.80
2023-04-14T21:58:10.470Z,6.40
2023-04-14T22:00:40.221Z,7.70
2023-04-14T22:05:39.073Z,6.50
2023-04-14T22:08:07.943Z,5.70
2023-04-14T22:10:38.275Z,5.60
2023-04-14T22:13:08.231Z,7.40
2023-04-14T22:15:37.288Z,7.00
2023-04-14T22:18:06.717Z,5.30
2023-04-14T22:20:37.051Z,7.00
2023-04-14T22:23:06.287Z,5.40
2023-04-14T22:25:35.588Z,5.90
2023-04-14T22:28:04.304Z,5.70
2023-04-14T22:30:32.722Z,5.60
2023-04-14T22:33:00.757Z,7.20
2023-04-14T22:35:28.715Z,6.40
2023-04-14T22:37:58.079Z,5.50
2023-04-14T22:40:26.110Z,5.50
2023-04-14T22:42:54.013Z,5.50
2023-04-14T22:45:22.081Z,5.50
2023-04-14T22:47:50.116Z,5.50
2023-04-14T22:50:18.096Z,5.50
2023-04-14T22:52:46.078Z,5.40
2023-04-14T22:55:15.369Z,5.80
2023-04-14T22:57:43.316Z,5.30
2023-04-14T23:00:13.367Z,5.20
2023-04-14T23:02:42.277Z,5.10
2023-04-14T23:05:11.569Z,5.00
2023-04-14T23:07:39.925Z,5.00
2023-04-14T23:10:08.635Z,4.90
2023-04-14T23:12:38.699Z,4.90
2023-04-14T23:15:09.332Z,4.80
2023-04-14T23:17:37.478Z,4.80
2023-04-14T23:20:06.113Z,4.70
2023-04-14T23:22:34.057Z,4.70
2023-04-14T23:25:02.154Z,4.80
2023-04-14T23:27:30.228Z,4.70
2023-04-14T23:29:59.608Z,4.60
2023-04-14T23:32:27.589Z,4.70
2023-04-14T23:34:55.799Z,4.70
2023-04-14T23:37:24.011Z,4.80
2023-04-14T23:39:51.992Z,4.80
2023-04-14T23:42:19.927Z,4.80
2023-04-14T23:44:47.923Z,4.80
2023-04-14T23:47:17.505Z,5.10
2023-04-14T23:49:45.491Z,5.00
2023-04-14T23:52:13.563Z,5.20
2023-04-14T23:54:41.819Z,4.80
2023-04-14T23:57:09.922Z,4.90
2023-04-14T23:59:38.196Z,4.90
